Tiempo atmosférico en la estación meteorológica de Puerto de Pajares, Asturias (1480 m.)



Fecha
DESCASC
Temp. máxima en grados centígrados (hora)
DESCASC
Temp. mínima en grados centígrados (hora)
DESCASC
Temp. media en grados centígrados
DESCASC
Racha de viento máxima en m/sg (hora)
DESCASC
Velocidad máxima media en intervalos de 10 minutos(hora)
DESCASC
Precipitaciones diarias en mm
DESCASC
Precipitaciones de 00:00 a 06:00 en mm
DESCASC
Precipitaciones de 06:00 a 12:00 en mm
DESCASC
Precipitaciones de 12:00 a 18:00 en mm
DESCASC
Precipitaciones de 18:00 a 24:00 en mm
DESCASC

Gráficas

Temp. máximas Temp. mínimas Temp. medias Precipitaciones Rachas de viento máximas Velocidades máximas media en intervalos de 10 minutos

Datos horarios

Fecha y hora oficial Temperatura (ºC) Velocidad del viento (km/h) Dirección del viento Racha (km/h) Dirección de racha Precipitación (mm) Presión (hPa) Tendencia (hPa) Humedad (%)
2020-09-26 23:00:00 7.5 22 Noroeste 56 Noroeste 0 -- -- 90
2020-09-26 22:00:00 7.9 26 Noroeste 63 Noroeste 0.7 -- -- 90
2020-09-26 21:00:00 8.7 22 Noroeste 50 Noroeste 0 -- -- 90
2020-09-26 20:00:00 8.7 22 Noroeste 41 Noroeste 0 -- -- 90
2020-09-26 19:00:00 8.7 15 Noroeste 39 Noroeste 0 -- -- 90
2020-09-26 18:00:00 8.4 17 Noroeste 40 Noroeste 0.1 -- -- 90
2020-09-26 17:00:00 8.1 17 Noroeste 37 Noroeste 0.1 -- -- 90
2020-09-26 16:00:00 7.2 8 Oeste 21 Oeste 0 -- -- 90
2020-09-26 15:00:00 7.5 4 Noroeste 11 Noroeste 0 -- -- 91
2020-09-26 14:00:00 7 4 Norte 11 Nordeste 0 -- -- 91
2020-09-26 13:00:00 6.5 5 Noroeste 19 Noroeste 0 -- -- 91
2020-09-26 12:00:00 5.4 7 Noroeste 16 Norte 0 -- -- 91
2020-09-26 11:00:00 5.1 7 Noroeste 18 Noroeste 0 -- -- 91
2020-09-26 10:00:00 4.8 13 Noroeste 24 Noroeste 0 -- -- 91
2020-09-26 09:00:00 4.1 10 Noroeste 22 Noroeste 0.1 -- -- 91
2020-09-26 08:00:00 3.7 8 Noroeste 17 Noroeste 0 -- -- 91
2020-09-26 07:00:00 3.6 6 Norte 15 Norte 0.5 -- -- 91
2020-09-26 06:00:00 3.2 7 Noroeste 19 Noroeste 0.4 -- -- 91
2020-09-26 05:00:00 2.9 9 Noroeste 18 Noroeste 0.1 -- -- 91
2020-09-26 04:00:00 2.5 8 Noroeste 26 Norte 0.3 -- -- 91
2020-09-26 03:00:00 2.4 15 Noroeste 30 Noroeste 0 -- -- 91
2020-09-26 02:00:00 2.3 17 Noroeste 36 Noroeste 0 -- -- 91
2020-09-26 01:00:00 2.3 17 Noroeste 36 Noroeste 0 -- -- 91
2020-09-26 00:00:00 2.3 18 Noroeste 49 Noroeste 0 -- -- 91
2020-09-25 23:00:00 2.9 23 Noroeste 46 Noroeste 0 -- -- 91
2020-09-25 22:00:00 2.9 22 Noroeste 48 Noroeste 0 -- -- 91
2020-09-25 21:00:00 2.9 21 Noroeste 44 Noroeste 0.3 -- -- 91
2020-09-25 20:00:00 3 23 Noroeste 48 Oeste 0.6 -- -- 91
2020-09-25 19:00:00 3.1 23 Noroeste 54 Noroeste 0.5 -- -- 91
2020-09-25 18:00:00 3.4 18 Norte 42 Noroeste 0.3 -- -- 91
2020-09-25 17:00:00 3.4 19 Noroeste 58 Noroeste 0.3 -- -- 91
2020-09-25 16:00:00 3.2 20 Noroeste 47 Noroeste 0.1 -- -- 91
2020-09-25 15:00:00 3.4 19 Noroeste 47 Norte 0.3 -- -- 91
2020-09-25 14:00:00 3.1 21 Noroeste 48 Noroeste 0.1 -- -- 91
2020-09-25 13:00:00 2.7 17 Noroeste 44 Noroeste 0.7 -- -- 91
2020-09-25 12:00:00 2.6 18 Noroeste 46 Noroeste 0.4 -- -- 91
2020-09-25 11:00:00 2.2 23 Noroeste 51 Noroeste 0.1 -- -- 91
2020-09-25 10:00:00 2 19 Noroeste 43 Noroeste 0.1 -- -- 91
2020-09-25 09:00:00 1.5 18 Noroeste 44 Noroeste 0.2 -- -- 91
2020-09-25 08:00:00 1.3 24 Noroeste 51 Noroeste 0.1 -- -- 90
2020-09-25 07:00:00 1.5 17 Noroeste 43 Noroeste 0.2 -- -- 91
2020-09-25 06:00:00 1.6 20 Noroeste 39 Noroeste 0 -- -- 89
2020-09-25 05:00:00 1.9 15 Noroeste 31 Noroeste 0 -- -- 84
2020-09-25 04:00:00 2.2 10 Norte 37 Noroeste 0 -- -- 80
2020-09-25 03:00:00 2.1 12 Noroeste 30 Noroeste 0 -- -- 84
2020-09-25 02:00:00 2.1 15 Noroeste 38 Noroeste 0.2 -- -- 91
2020-09-25 01:00:00 3.7 11 Noroeste 22 Noroeste 0.4 -- -- 90
2020-09-25 00:00:00 4.4 5 Noroeste 22 Noroeste 0.9 -- -- 89
2020-09-24 23:00:00 5.1 3 Nordeste 19 Noroeste 1.1 -- -- 87
2020-09-24 22:00:00 5.7 5 Norte 20 Oeste 0.4 -- -- 79
2020-09-24 21:00:00 6.3 6 Sudeste 22 Norte 0.3 -- -- 79
2020-09-24 20:00:00 7.5 4 Noroeste 30 Sur 0 -- -- 65
2020-09-24 19:00:00 7.9 13 Sur 48 Oeste 0 -- -- 63
2020-09-24 18:00:00 9 6 Oeste 35 Noroeste 0 -- -- 59
2020-09-24 17:00:00 9.6 4 Oeste 40 Oeste 0 -- -- 59
2020-09-24 16:00:00 10.5 8 Norte 26 Noroeste 0 -- -- 50
2020-09-24 15:00:00 10.6 3 Oeste 35 Sur 0 -- -- 44
2020-09-24 14:00:00 11.4 11 Sudoeste 32 Sudoeste 0 -- -- 42
2020-09-24 13:00:00 11 7 Noroeste 28 Sudoeste 0 -- -- 44
2020-09-24 12:00:00 10.1 11 Sur 20 Este 0 -- -- 52
2020-09-24 11:00:00 9.5 6 Sur 18 Sur 0 -- -- 56
2020-09-24 10:00:00 8.1 9 Sur 27 Sur 0 -- -- 61
2020-09-24 09:00:00 7.5 8 Sudoeste 34 Oeste 0 -- -- 64
2020-09-24 08:00:00 7.5 4 Sudoeste 22 Sudoeste 0 -- -- 65
2020-09-24 07:00:00 7.2 12 Sudoeste 24 Sudoeste 0 -- -- 67
2020-09-24 06:00:00 6.7 5 Sudoeste 13 Norte 0 -- -- 74
2020-09-24 05:00:00 7.8 3 Oeste 14 Sur 0 -- -- 72
2020-09-24 04:00:00 8.8 12 Sudoeste 24 Sudoeste 0 -- -- 69
2020-09-24 03:00:00 8.3 11 Sudoeste 18 Sur 0 -- -- 71
2020-09-24 02:00:00 7.3 0 Calma 8 Nordeste 0 -- -- 83
2020-09-24 01:00:00 8.5 4 Nordeste 8 Noroeste 0 -- -- 84
2020-09-24 00:00:00 9.3 0 Calma 13 Sur 0 -- -- 79
2020-09-23 23:00:00 9.7 2 Norte 8 Noroeste 0 -- -- 82
2020-09-23 22:00:00 10.5 0 Calma 12 Noroeste 0 -- -- 77
2020-09-23 21:00:00 10.9 0 Calma 7 Sudoeste 0 -- -- 81
2020-09-23 20:00:00 11.8 2 Oeste 10 Oeste 0 -- -- 77
2020-09-23 19:00:00 12.6 2 Sur 10 Oeste 0 -- -- 69
2020-09-23 18:00:00 13.4 5 Noroeste 27 Sur 0 -- -- 68
2020-09-23 17:00:00 14 7 Sudoeste 24 Noroeste 0 -- -- 50
2020-09-23 16:00:00 14.2 6 Nordeste 23 Sudoeste 0 -- -- 52
2020-09-23 15:00:00 14.9 6 Oeste 25 Sudoeste 0 -- -- 51
2020-09-23 14:00:00 13.9 11 Sur 29 Sur 0 -- -- 63
2020-09-23 13:00:00 13.6 11 Sur 24 Sur 0 -- -- 62
2020-09-23 12:00:00 11.8 11 Sur 26 Sur 0 -- -- 71
2020-09-23 11:00:00 11.8 0 Calma 17 Sur 0 -- -- 69
2020-09-23 10:00:00 11 3 Sudoeste 24 Oeste 0 -- -- 74
2020-09-23 09:00:00 10.5 12 Sur 30 Sur 0 -- -- 77
2020-09-23 08:00:00 10.2 7 Sudoeste 36 Sur 0 -- -- 77
2020-09-23 07:00:00 10.2 22 Sur 38 Sur 0.1 -- -- 78
2020-09-23 06:00:00 10.5 13 Sur 28 Sudeste 0 -- -- 80
2020-09-23 05:00:00 10.6 16 Sur 37 Sur 0 -- -- 78
2020-09-23 04:00:00 10.1 20 Sur 36 Sur 0 -- -- 82
2020-09-23 03:00:00 10.1 16 Sur 27 Sur 1.2 -- -- 80
2020-09-23 02:00:00 10 15 Sur 23 Sur 0.8 -- -- 74
2020-09-23 01:00:00 10.4 6 Sur 17 Sur 0 -- -- 65
2020-09-23 00:00:00 10.5 11 Sur 19 Sur 0 -- -- 64
2020-09-22 23:00:00 9.7 10 Sudoeste 15 Sudoeste 0 -- -- 69
2020-09-22 22:00:00 9.5 8 Sudoeste 18 Sudoeste 0 -- -- 64
2020-09-22 21:00:00 11.2 12 Sudoeste 21 Sudoeste 0 -- -- 57
2020-09-22 20:00:00 11.8 11 Sudoeste 19 Sudoeste 0 -- -- 54
2020-09-22 19:00:00 11.4 4 Sur 15 Sur 0 -- -- 76
2020-09-22 18:00:00 11.6 3 Norte 17 Sur 0 -- -- 81
2020-09-22 17:00:00 13.3 7 Sur 19 Sudeste 0 -- -- 57
2020-09-22 16:00:00 13.4 8 Sur 19 Sur 0 -- -- 54
2020-09-22 15:00:00 12.9 6 Sur 19 Sur 0 -- -- 57
2020-09-22 14:00:00 12.8 14 Sur 26 Sudeste 0 -- -- 55
2020-09-22 13:00:00 13.5 11 Sur 21 Sudeste 0 -- -- 56
2020-09-22 12:00:00 12.8 6 Sur 18 Sur 0 -- -- 64
2020-09-22 11:00:00 10.9 10 Sur 18 Sur 0 -- -- 72
2020-09-22 10:00:00 10.3 10 Sur 16 Sur 0 -- -- 78
2020-09-22 09:00:00 9.6 11 Sur 15 Sur 0 -- -- 81
2020-09-22 08:00:00 9.3 9 Sur 23 Sur 0 -- -- 81
2020-09-22 07:00:00 9.4 12 Sur 26 Sur 0 -- -- 82
2020-09-22 06:00:00 9.5 14 Sur 23 Sur 0.1 -- -- 84
2020-09-22 05:00:00 9.7 9 Sur 15 Sudoeste 0 -- -- 83
2020-09-22 04:00:00 9.9 6 Sur 18 Sur 0 -- -- 83
2020-09-22 03:00:00 9.5 12 Sur 22 Sur 0 -- -- 85
2020-09-22 02:00:00 9.3 10 Sur 18 Sur 0 -- -- 90
2020-09-22 01:00:00 9.5 0 Calma 3 Noroeste 0 -- -- 90
2020-09-22 00:00:00 9.6 0 Calma 4 Norte 0 -- -- 90
2020-09-21 23:00:00 9.6 0 Calma 4 Oeste 0 -- -- 90
2020-09-21 22:00:00 9.7 0 Calma 5 Noroeste 0.1 -- -- 90
2020-09-21 21:00:00 9.7 2 Noroeste 9 Noroeste 0 -- -- 90
2020-09-21 20:00:00 9.8 3 Noroeste 12 Norte 0 -- -- 90
2020-09-21 19:00:00 10 3 Noroeste 11 Noroeste 0 -- -- 90
2020-09-21 18:00:00 10.3 6 Noroeste 11 Oeste 0 -- -- 90
2020-09-21 17:00:00 10.4 3 Noroeste 9 Noroeste 0.2 -- -- 90
2020-09-21 16:00:00 9.9 3 Noroeste 8 Oeste 0.4 -- -- 90
2020-09-21 15:00:00 9.8 3 Norte 12 Noroeste 3.4 -- -- 90
2020-09-21 14:00:00 10 7 Noroeste 12 Noroeste 1.4 -- -- 90
2020-09-21 13:00:00 9.8 4 Noroeste 11 Norte 1.7 -- -- 89
2020-09-21 12:00:00 10.1 2 Noroeste 7 Noroeste 0.9 -- -- 89
2020-09-21 11:00:00 10.3 0 Calma 6 Oeste 0 -- -- 88
2020-09-21 10:00:00 10.2 3 Noroeste 5 Noroeste 0 -- -- 87
2020-09-21 09:00:00 9.8 0 Calma 2 Sudeste 0 -- -- 87
2020-09-21 08:00:00 9.4 0 Calma 2 Noroeste 0 -- -- 86
2020-09-21 07:00:00 9.4 0 Calma 5 Sudoeste 0 -- -- 86
2020-09-21 06:00:00 9.6 0 Calma 13 Sur 0 -- -- 83
2020-09-21 05:00:00 10 8 Sur 12 Sudoeste 0 -- -- 85
2020-09-21 04:00:00 9.6 3 Sur 4 Sudoeste 0 -- -- 89
2020-09-21 03:00:00 9.8 2 Sudoeste 5 Sur 0 -- -- 89
2020-09-21 02:00:00 9.8 0 Calma 5 Oeste 0 -- -- 89
2020-09-21 01:00:00 9.6 3 Oeste 7 Sudoeste 0 -- -- 87
2020-09-21 00:00:00 10 2 Sudeste 6 Sur 0.2 -- -- 88
2020-09-20 23:00:00 10.2 3 Sur 6 Noroeste 0.1 -- -- 90
2020-09-20 22:00:00 10.2 4 Noroeste 14 Noroeste 0 -- -- 90
2020-09-20 21:00:00 10.6 2 Noroeste 9 Noroeste 0 -- -- 90
2020-09-20 20:00:00 10.8 4 Oeste 9 Oeste 0 -- -- 89
2020-09-20 19:00:00 11.3 5 Oeste 11 Noroeste 0.7 -- -- 88
2020-09-20 18:00:00 11.3 7 Norte 12 Noroeste 0.6 -- -- 87
2020-09-20 17:00:00 12.7 5 Noroeste 14 Oeste 0 -- -- 78
2020-09-20 16:00:00 11.9 4 Noroeste 10 Noroeste 0 -- -- 81
2020-09-20 15:00:00 11.8 4 Noroeste 8 Noroeste 0 -- -- 80
2020-09-20 14:00:00 11 4 Noroeste 8 Noroeste 0 -- -- 79
2020-09-20 13:00:00 11.6 4 Noroeste 10 Noroeste 0 -- -- 77
2020-09-20 12:00:00 11.8 2 Noroeste 10 Noroeste 0 -- -- 75
2020-09-20 11:00:00 11 2 Noroeste 8 Norte 0 -- -- 74
2020-09-20 10:00:00 12 2 Este 10 Sudoeste 0 -- -- 77
2020-09-20 09:00:00 9.4 8 Sur 14 Sur 0 -- -- 82
2020-09-20 08:00:00 9.1 10 Sur 18 Sur 0 -- -- 81
2020-09-20 07:00:00 9.2 14 Sur 20 Sur 0 -- -- 81
2020-09-20 06:00:00 9.5 11 Sur 21 Sur 0 -- -- 81
2020-09-20 05:00:00 9.1 14 Sur 19 Sur 0 -- -- 83
2020-09-20 04:00:00 9.2 14 Sur 17 Sur 0 -- -- 82
2020-09-20 03:00:00 9.4 11 Sur 14 Sur 0 -- -- 80
2020-09-20 02:00:00 8.5 6 Sudoeste 14 Sudoeste 0 -- -- 81
2020-09-20 01:00:00 9.2 11 Sur 14 Sur 0 -- -- 81
2020-09-20 00:00:00 10 9 Sur 13 Sur 0 -- -- 82
2020-09-19 23:00:00 10.3 0 Calma 5 Sudoeste 0 -- -- 86
2020-09-19 22:00:00 10.5 0 Calma 5 Noroeste 0 -- -- 86
2020-09-19 21:00:00 10.6 5 Noroeste 8 Noroeste 0 -- -- 78
2020-09-19 20:00:00 11.6 0 Calma 3 Sur 0 -- -- 67
2020-09-19 19:00:00 12.1 0 Calma 9 Noroeste 0 -- -- 67
2020-09-19 18:00:00 12.7 6 Noroeste 15 Oeste 0 -- -- 64
2020-09-19 17:00:00 12.4 5 Noroeste 13 Noroeste 0 -- -- 76
2020-09-19 16:00:00 10.2 7 Noroeste 23 Noroeste 0 -- -- 87
2020-09-19 15:00:00 10.5 10 Noroeste 25 Noroeste 0 -- -- 79
2020-09-19 14:00:00 11.8 5 Noroeste 21 Noroeste 0 -- -- 74
2020-09-19 13:00:00 11.7 6 Noroeste 13 Noroeste 0 -- -- 73
2020-09-19 12:00:00 12.2 5 Noroeste 13 Noroeste 0 -- -- 72
2020-09-19 11:00:00 10.8 3 Noroeste 5 Noroeste 0 -- -- 75
2020-09-19 10:00:00 10 3 Sudeste 8 Sudoeste 0 -- -- 79
2020-09-19 09:00:00 9.4 4 Sudoeste 12 Sudoeste 0 -- -- 80
2020-09-19 08:00:00 8.5 8 Sudoeste 13 Sur 0 -- -- 79
2020-09-19 07:00:00 8.5 3 Sudeste 28 Sur 0 -- -- 83
2020-09-19 06:00:00 8.5 22 Sur 40 Sur 0 -- -- 86
2020-09-19 05:00:00 8.5 23 Sur 35 Sur 0 -- -- 86
2020-09-19 04:00:00 9.1 14 Sur 30 Sudeste 0.4 -- -- 86
2020-09-19 03:00:00 9.3 10 Sudeste 31 Sudeste 0 -- -- 88
2020-09-19 02:00:00 9.4 14 Sudeste 25 Sur 0 -- -- 85
2020-09-19 01:00:00 9.7 9 Sudeste 24 Sudeste 0.3 -- -- 81
2020-09-19 00:00:00 9.9 10 Sur 17 Sudeste 0 -- -- 79
2020-09-18 23:00:00 10.4 8 Sur 23 Sur 0 -- -- 76
2020-09-18 22:00:00 10.9 9 Sudeste 24 Sur 1.1 -- -- 77
2020-09-18 21:00:00 11.6 3 Sudeste 18 Este 0.1 -- -- 71
2020-09-18 20:00:00 11.9 12 Sudeste 27 Sur 0 -- -- 68
2020-09-18 19:00:00 13 10 Este 31 Este 0 -- -- 67
2020-09-18 18:00:00 13.5 7 Sudeste 28 Sur 0 -- -- 64
2020-09-18 17:00:00 13.7 8 Sur 32 Sudeste 0 -- -- 68
2020-09-18 16:00:00 12.7 13 Sudeste 35 Sur 0 -- -- 70
2020-09-18 15:00:00 12.4 18 Sur 35 Este 0.1 -- -- 72
2020-09-18 14:00:00 11.2 13 Sudeste 32 Sudeste 0.6 -- -- 81
2020-09-18 13:00:00 10.7 13 Sur 33 Sur 0.8 -- -- 83
2020-09-18 12:00:00 10.1 15 Sudeste 42 Este 0.1 -- -- 87
2020-09-18 11:00:00 9.7 10 Sudeste 33 Sudeste 0.4 -- -- 89
2020-09-18 10:00:00 9.3 15 Sudeste 41 Sudeste 1.8 -- -- 87
2020-09-18 09:00:00 9.8 20 Sudeste 35 Sudeste 1 -- -- 85
2020-09-18 08:00:00 11 15 Sudeste 39 Este 0.3 -- -- 81
2020-09-18 07:00:00 11.1 12 Sur 30 Sudeste 0.8 -- -- 84
2020-09-18 06:00:00 10.9 13 Sudeste 35 Sur 0 -- -- 85
2020-09-18 05:00:00 10.7 12 Sur 40 Sudeste 0.3 -- -- 83
2020-09-18 04:00:00 11.5 14 Sudeste 42 Sudeste 0 -- -- 78
2020-09-18 03:00:00 11.5 19 Sur 43 Sur 1.6 -- -- 73
2020-09-18 02:00:00 11.4 18 Sur 45 Sur 3.8 -- -- 79
2020-09-18 01:00:00 12.4 9 Sudeste 24 Sur 3.3 -- -- 81
2020-09-18 00:00:00 12 12 Sur 21 Sur 0.7 -- -- 84
2020-09-17 23:00:00 11.8 10 Sudeste 43 Sudoeste 10.9 -- -- 81
2020-09-17 22:00:00 15.5 7 Sudoeste 30 Sudeste 0 -- -- 63
2020-09-17 21:00:00 15.5 8 Sudeste 28 Sudeste 0 -- -- 65
2020-09-17 20:00:00 15.7 12 Sudeste 26 Sudeste 0 -- -- 65
2020-09-17 19:00:00 16.1 10 Sudeste 33 Este 0 -- -- 63
2020-09-17 18:00:00 16 13 Sudeste 31 Este 0 -- -- 65
2020-09-17 17:00:00 15.2 13 Sudeste 35 Sur 0 -- -- 68
2020-09-17 16:00:00 14.6 19 Sur 36 Sur 0 -- -- 70
2020-09-17 15:00:00 13.9 18 Sur 39 Sur 0 -- -- 73
2020-09-17 14:00:00 14.3 21 Sur 38 Sur 0 -- -- 71
2020-09-17 13:00:00 14.6 22 Sur 39 Sudoeste 0 -- -- 68
2020-09-17 12:00:00 15 13 Sur 31 Sudeste 0 -- -- 66
2020-09-17 11:00:00 15 10 Sudeste 33 Sur 0 -- -- 61
2020-09-17 10:00:00 13.9 10 Sudeste 21 Sudeste 0 -- -- 67
2020-09-17 09:00:00 13 9 Sudeste 23 Este 0 -- -- 73
2020-09-17 08:00:00 13.3 9 Sudeste 25 Sur 0 -- -- 68
2020-09-17 07:00:00 13.1 14 Sur 30 Sudoeste 0 -- -- 73
2020-09-17 06:00:00 13.5 18 Sur 49 Sudeste 0 -- -- 71
2020-09-17 05:00:00 14.7 14 Sudeste 39 Este 0 -- -- 66
2020-09-17 04:00:00 15.1 12 Sudeste 23 Sur 0 -- -- 63
2020-09-17 03:00:00 12.4 8 Sur 15 Sudeste 0.1 -- -- 71
2020-09-17 02:00:00 13.8 10 Sudeste 38 Sur 3.4 -- -- 65
2020-09-17 01:00:00 13.3 4 Sudoeste 11 Sudoeste 0 -- -- 71
2020-09-17 00:00:00 13.7 7 Sudoeste 11 Sur 0 -- -- 75
2020-09-16 23:00:00 13 4 Sudoeste 10 Sudoeste 0 -- -- 71
2020-09-16 22:00:00 13.3 8 Sudoeste 11 Sudoeste 0 -- -- 76
2020-09-16 21:00:00 13.4 8 Sudoeste 9 Sudoeste 0 -- -- 75
2020-09-16 20:00:00 15.7 3 Oeste 5 Noroeste 0 -- -- 73
2020-09-16 19:00:00 16.7 3 Norte 9 Noroeste 0 -- -- 67
2020-09-16 18:00:00 18.3 7 Noroeste 18 Sudeste 0 -- -- 51
2020-09-16 17:00:00 19.5 8 Sudeste 21 Sur 0 -- -- 33
2020-09-16 16:00:00 19.9 13 Sur 23 Sudeste 0 -- -- 32
2020-09-16 15:00:00 19.4 13 Sudeste 35 Sudeste 0 -- -- 36
2020-09-16 14:00:00 18.9 15 Sudeste 31 Sur 0 -- -- 38
2020-09-16 13:00:00 18.4 11 Sudeste 33 Sur 0 -- -- 45
2020-09-16 12:00:00 17.3 14 Sudeste 33 Sur 0 -- -- 48
2020-09-16 11:00:00 16.1 14 Sur 38 Sur 0 -- -- 51
2020-09-16 10:00:00 15 22 Sur 39 Sur 0 -- -- 54
2020-09-16 09:00:00 13.9 23 Sur 39 Sur 0 -- -- 57
2020-09-16 08:00:00 13.5 19 Sur 40 Sur 0 -- -- 56
2020-09-16 07:00:00 13.6 23 Sur 37 Sur 0 -- -- 56
2020-09-16 06:00:00 13.6 22 Sur 33 Sur 0 -- -- 56
2020-09-16 05:00:00 13.7 20 Sur 30 Sur 0 -- -- 55
2020-09-16 04:00:00 13.8 17 Sur 26 Sur 0 -- -- 55
2020-09-16 03:00:00 13.8 11 Sur 18 Sur 0 -- -- 56
2020-09-16 02:00:00 14 10 Sur 17 Sur 0 -- -- 56
2020-09-16 01:00:00 11.7 8 Sur 13 Sur 0 -- -- 64
2020-09-16 00:00:00 11.9 7 Sur 12 Sur 0 -- -- 61
2020-09-15 23:00:00 13.7 7 Sur 17 Sur 0 -- -- 55
2020-09-15 22:00:00 14.9 10 Sur 21 Este 0 -- -- 58
2020-09-15 21:00:00 15.7 6 Sudeste 22 Sudeste 0 -- -- 59
2020-09-15 20:00:00 14.6 4 Nordeste 16 Este 0 -- -- 84
2020-09-15 19:00:00 16.3 3 Norte 17 Sudoeste 0 -- -- 76
2020-09-15 18:00:00 18.2 2 Sudoeste 25 Sudeste 0 -- -- 49
2020-09-15 17:00:00 17.2 10 Sur 22 Sur 0 -- -- 47
2020-09-15 16:00:00 17.3 12 Sur 35 Sudoeste 0 -- -- 49
2020-09-15 15:00:00 17.6 15 Sur 33 Sudoeste 0 -- -- 47
2020-09-15 14:00:00 16.5 11 Sur 38 Sur 0 -- -- 56
2020-09-15 13:00:00 16.1 16 Sur 38 Sur 0 -- -- 59
2020-09-15 12:00:00 14.8 11 Sur 36 Este 0 -- -- 71
2020-09-15 11:00:00 12.9 13 Sudeste 33 Sur 0 -- -- 78
2020-09-15 10:00:00 12 12 Sudeste 27 Sur 0 -- -- 82
2020-09-15 09:00:00 11.5 15 Sur 29 Sur 0 -- -- 84
2020-09-15 08:00:00 11.4 18 Sur 33 Sudoeste 0 -- -- 84
2020-09-15 07:00:00 11.5 18 Sur 30 Sur 0 -- -- 85
2020-09-15 06:00:00 11.9 18 Sur 28 Sur 0 -- -- 85
2020-09-15 05:00:00 12 15 Sur 28 Sudeste 0 -- -- 85
2020-09-15 04:00:00 11.9 14 Sudeste 35 Sudeste 0 -- -- 83
2020-09-15 03:00:00 12.4 18 Sudeste 35 Sur 0 -- -- 76
2020-09-15 02:00:00 14.3 14 Sur 28 Sur 0 -- -- 69
2020-09-15 01:00:00 12 3 Sudoeste 19 Sur 0 -- -- 77
2020-09-15 00:00:00 14.5 10 Sudeste 18 Sur 0 -- -- 70
2020-09-14 23:00:00 13.4 9 Sur 14 Sur 0 -- -- 75
2020-09-14 22:00:00 12.7 8 Sur 13 Sur 0 -- -- 77
2020-09-14 21:00:00 15 7 Sur 20 Sur 0 -- -- 69
2020-09-14 20:00:00 13.8 8 Sur 59 Sudoeste 10.4 -- -- 69
2020-09-14 19:00:00 15.7 8 Sur 29 Sudeste 0.3 -- -- 61
2020-09-14 18:00:00 18.3 15 Sudeste 47 Sudeste 0 -- -- 49
2020-09-14 17:00:00 19.1 16 Sur 37 Sur 0 -- -- 49
2020-09-14 16:00:00 18.3 14 Sur 43 Sudeste 0 -- -- 51
2020-09-14 15:00:00 17.6 14 Sudeste 37 Sudeste 0 -- -- 53
2020-09-14 14:00:00 17.1 16 Sudeste 34 Sur 0 -- -- 56
2020-09-14 13:00:00 15.4 12 Sur 29 Sudoeste 0 -- -- 58
2020-09-14 12:00:00 17.6 13 Sur 29 Sudeste 0 -- -- 51
2020-09-14 11:00:00 17.2 16 Sudeste 32 Sur 0 -- -- 52
2020-09-14 10:00:00 15.6 22 Sur 32 Sur 0 -- -- 52
2020-09-14 09:00:00 15.4 21 Sur 35 Sur 0 -- -- 52
2020-09-14 08:00:00 14.9 22 Sur 34 Sur 0 -- -- 49
2020-09-14 07:00:00 15.8 17 Sur 40 Sudeste 0 -- -- 43
2020-09-14 06:00:00 17 12 Sudeste 32 Sur 0 -- -- 40
2020-09-14 05:00:00 17.8 17 Sur 26 Sur 0 -- -- 39
2020-09-14 04:00:00 17.8 15 Sur 28 Sur 0 -- -- 39
2020-09-14 03:00:00 18.2 21 Sur 31 Sur 0 -- -- 38
2020-09-14 02:00:00 19.7 15 Sudeste 37 Sur 0 -- -- 35
2020-09-14 01:00:00 19.9 20 Sur 34 Sur 0 -- -- 35
2020-09-14 00:00:00 19.4 11 Sur 24 Sur 0 -- -- 36
2020-09-13 23:00:00 19.3 14 Sur 21 Sur 0 -- -- 37
2020-09-13 22:00:00 19 12 Sur 17 Sur 0 -- -- 38
2020-09-13 21:00:00 19.3 11 Sur 19 Sur 0 -- -- 36
2020-09-13 20:00:00 20.5 9 Sur 17 Sur 0 -- -- 33
2020-09-13 19:00:00 22.7 13 Sur 24 Sur 0 -- -- 30
2020-09-13 18:00:00 23.1 14 Sur 24 Sur 0 -- -- 29
2020-09-13 17:00:00 24.3 9 Sur 27 Sudeste 0 -- -- 27
2020-09-13 16:00:00 24.5 6 Sur 23 Sur 0 -- -- 28
2020-09-13 15:00:00 24.4 7 Sur 24 Sudoeste 0 -- -- 29
2020-09-13 14:00:00 23.2 10 Sur 29 Sur 0 -- -- 33
2020-09-13 13:00:00 21 19 Sur 30 Sur 0 -- -- 35
2020-09-13 12:00:00 19.8 20 Sur 32 Sur 0 -- -- 37
2020-09-13 11:00:00 18.4 23 Sur 41 Sur 0 -- -- 36
2020-09-13 10:00:00 17.5 26 Sur 40 Sur 0 -- -- 30
2020-09-13 09:00:00 16.1 24 Sur 34 Sur 0 -- -- 30
2020-09-13 08:00:00 15 23 Sur 31 Sur 0 -- -- 30
2020-09-13 07:00:00 15.3 25 Sur 32 Sur 0 -- -- 30
2020-09-13 06:00:00 15 24 Sur 30 Sur 0 -- -- 36
2020-09-13 05:00:00 15.3 23 Sur 27 Sur 0 -- -- 41
2020-09-13 04:00:00 15.3 20 Sur 26 Sur 0 -- -- 43
2020-09-13 03:00:00 15.4 21 Sur 29 Sur 0 -- -- 44
2020-09-13 02:00:00 15.6 22 Sur 29 Sur 0 -- -- 44
2020-09-13 01:00:00 15.7 21 Sur 30 Sur 0 -- -- 46
2020-09-13 00:00:00 16 19 Sur 32 Sur 0 -- -- 57
2020-09-12 23:00:00 15.1 12 Sudoeste 15 Sudoeste 0 -- -- 48
2020-09-12 22:00:00 14 12 Sudoeste 15 Sudoeste 0 -- -- 59
2020-09-12 21:00:00 14 10 Sur 13 Sur 0 -- -- 69
2020-09-12 20:00:00 14.9 4 Sudoeste 7 Sur 0 -- -- 68
2020-09-12 19:00:00 19.2 4 Oeste 10 Oeste 0 -- -- 60
2020-09-12 18:00:00 20 3 Oeste 13 Noroeste 0 -- -- 56
2020-09-12 17:00:00 19.8 5 Noroeste 15 Noroeste 0 -- -- 58
2020-09-12 16:00:00 21 5 Noroeste 11 Noroeste 0 -- -- 43
2020-09-12 15:00:00 21.8 3 Noroeste 14 Norte 0 -- -- 37
2020-09-12 14:00:00 21.9 5 Norte 16 Sur 0 -- -- 28
2020-09-12 13:00:00 21.3 7 Sudeste 18 Sudeste 0 -- -- 27
2020-09-12 12:00:00 20 7 Sur 17 Sur 0 -- -- 28
2020-09-12 11:00:00 19.5 10 Sur 17 Sur 0 -- -- 27
2020-09-12 10:00:00 18 12 Sur 18 Sur 0 -- -- 30
2020-09-12 09:00:00 15.2 14 Sur 18 Sur 0 -- -- 33
2020-09-12 08:00:00 14.7 16 Sur 22 Sur 0 -- -- 34
2020-09-12 07:00:00 14.9 17 Sur 21 Sur 0 -- -- 36
2020-09-12 06:00:00 14.8 14 Sur 17 Sur 0 -- -- 43
2020-09-12 05:00:00 12.6 11 Sur 15 Sur 0 -- -- 51
2020-09-12 04:00:00 14.5 12 Sur 17 Sur 0 -- -- 49
2020-09-12 03:00:00 14.9 14 Sur 17 Sur 0 -- -- 48
2020-09-12 02:00:00 13.9 13 Sur 17 Sur 0 -- -- 51
2020-09-12 01:00:00 14.4 12 Sur 14 Sur 0 -- -- 51
2020-09-12 00:00:00 12.8 9 Sur 11 Sur 0 -- -- 61
2020-09-11 23:00:00 13.1 8 Sur 12 Sur 0 -- -- 61
2020-09-11 22:00:00 13.1 9 Sur 13 Sur 0 -- -- 66
2020-09-11 21:00:00 12.8 6 Sur 8 Sur 0 -- -- 70
2020-09-11 20:00:00 15.7 0 Calma 7 Oeste 0 -- -- 64
2020-09-11 19:00:00 17.4 4 Noroeste 12 Noroeste 0 -- -- 57
2020-09-11 18:00:00 18.1 7 Noroeste 16 Noroeste 0 -- -- 54
2020-09-11 17:00:00 19.2 8 Noroeste 19 Noroeste 0 -- -- 52
2020-09-11 16:00:00 19.6 8 Noroeste 17 Noroeste 0 -- -- 51
2020-09-11 15:00:00 20.3 6 Noroeste 14 Noroeste 0 -- -- 45
2020-09-11 14:00:00 20.6 7 Norte 12 Noroeste 0 -- -- 40
2020-09-11 13:00:00 20.2 7 Sudeste 17 Sur 0 -- -- 42
2020-09-11 12:00:00 18.4 10 Sudeste 23 Sur 0 -- -- 45
2020-09-11 11:00:00 16.8 16 Sur 25 Sudeste 0 -- -- 48
2020-09-11 10:00:00 16.1 13 Sudeste 24 Sur 0 -- -- 50
2020-09-11 09:00:00 14.9 15 Sur 23 Sur 0 -- -- 52
2020-09-11 08:00:00 12.7 8 Sur 25 Sur 0 -- -- 55
2020-09-11 07:00:00 13.3 12 Sur 27 Sur 0 -- -- 55
2020-09-11 06:00:00 14.2 15 Sur 26 Sur 0 -- -- 53
2020-09-11 05:00:00 14.6 13 Sur 21 Sur 0 -- -- 51
2020-09-11 04:00:00 13.8 5 Sudoeste 15 Sur 0 -- -- 54
2020-09-11 03:00:00 13.9 12 Sur 16 Sur 0 -- -- 52
2020-09-11 02:00:00 12.4 10 Sudoeste 15 Sudoeste 0 -- -- 51
2020-09-11 01:00:00 12.7 12 Sudoeste 14 Sudoeste 0 -- -- 58
2020-09-11 00:00:00 12.2 10 Sudoeste 14 Sudoeste 0 -- -- 59
2020-09-10 23:00:00 11.2 8 Sudoeste 11 Sudoeste 0 -- -- 69
2020-09-10 22:00:00 12.3 8 Sudoeste 10 Sudoeste 0 -- -- 82
2020-09-10 21:00:00 12 2 Sudoeste 5 Sur 0 -- -- 81
2020-09-10 20:00:00 15 0 Calma 8 Oeste 0 -- -- 69
2020-09-10 19:00:00 16.5 4 Noroeste 12 Noroeste 0 -- -- 63
2020-09-10 18:00:00 16.9 7 Noroeste 16 Noroeste 0 -- -- 62
2020-09-10 17:00:00 17.3 8 Noroeste 18 Oeste 0 -- -- 63
2020-09-10 16:00:00 17.7 7 Noroeste 16 Noroeste 0 -- -- 61
2020-09-10 15:00:00 17.7 8 Noroeste 16 Norte 0 -- -- 58
2020-09-10 14:00:00 17.5 7 Noroeste 13 Noroeste 0 -- -- 54
2020-09-10 13:00:00 18.6 5 Noroeste 15 Sudeste 0 -- -- 43
2020-09-10 12:00:00 17.6 12 Sudeste 20 Sudeste 0 -- -- 44
2020-09-10 11:00:00 16.2 12 Sur 23 Sur 0 -- -- 47
2020-09-10 10:00:00 14.8 16 Sur 24 Sur 0 -- -- 50
2020-09-10 09:00:00 12.9 15 Sur 22 Sur 0 -- -- 55
2020-09-10 08:00:00 12.2 19 Sur 23 Sur 0 -- -- 55
2020-09-10 07:00:00 12.3 18 Sur 24 Sur 0 -- -- 60
2020-09-10 06:00:00 11.9 17 Sur 23 Sudeste 0 -- -- 56
2020-09-10 05:00:00 12.6 8 Sur 17 Sur 0 -- -- 54
2020-09-10 04:00:00 11.7 8 Sudoeste 13 Sur 0 -- -- 55
2020-09-10 03:00:00 10.2 10 Sudoeste 12 Sudoeste 0 -- -- 59
2020-09-10 02:00:00 10 5 Sudoeste 9 Sudoeste 0 -- -- 70
2020-09-10 01:00:00 11.9 3 Sur 9 Noroeste 0 -- -- 81
2020-09-10 00:00:00 12.5 0 Calma 8 Noroeste 0 -- -- 83
2020-09-09 23:00:00 12.6 0 Calma 6 Sudeste 0 -- -- 86
2020-09-09 22:00:00 12.3 2 Sur 6 Sudoeste 0 -- -- 86
2020-09-09 21:00:00 13.1 3 Sudoeste 6 Oeste 0 -- -- 82
2020-09-09 20:00:00 14.5 3 Noroeste 9 Noroeste 0 -- -- 77
2020-09-09 19:00:00 15.9 5 Noroeste 17 Noroeste 0 -- -- 69
2020-09-09 18:00:00 16.3 10 Noroeste 18 Noroeste 0 -- -- 64
2020-09-09 17:00:00 17 8 Noroeste 16 Noroeste 0 -- -- 57
2020-09-09 16:00:00 17 6 Noroeste 19 Noroeste 0 -- -- 55
2020-09-09 15:00:00 17.1 6 Noroeste 18 Noroeste 0 -- -- 51
2020-09-09 14:00:00 17.5 5 Noroeste 12 Noroeste 0 -- -- 46
2020-09-09 13:00:00 17.1 5 Noroeste 10 Noroeste 0 -- -- 43
2020-09-09 12:00:00 17 5 Noroeste 9 Noroeste 0 -- -- 41
2020-09-09 11:00:00 17.3 5 Este 18 Sur 0 -- -- 42
2020-09-09 10:00:00 14.7 13 Sur 21 Sur 0 -- -- 44
2020-09-09 09:00:00 12.3 14 Sur 23 Sur 0 -- -- 48
2020-09-09 08:00:00 11.2 15 Sur 23 Sur 0 -- -- 48
2020-09-09 07:00:00 11 22 Sur 27 Sur 0 -- -- 48
2020-09-09 06:00:00 11.3 22 Sur 27 Sur 0 -- -- 47
2020-09-09 05:00:00 11.7 22 Sur 29 Sur 0 -- -- 46
2020-09-09 04:00:00 11.6 20 Sur 28 Sur 0 -- -- 47
2020-09-09 03:00:00 12.5 21 Sur 27 Sur 0 -- -- 46
2020-09-09 02:00:00 12.3 19 Sur 23 Sur 0 -- -- 47
2020-09-09 01:00:00 12.9 15 Sur 21 Sudeste 0 -- -- 45
2020-09-09 00:00:00 13.3 13 Sur 18 Sudeste 0 -- -- 45
2020-09-08 23:00:00 13 14 Sur 19 Sur 0 -- -- 46
2020-09-08 22:00:00 13.7 13 Sur 18 Sur 0 -- -- 44
2020-09-08 21:00:00 14.3 13 Sur 17 Sur 0 -- -- 45
2020-09-08 20:00:00 12.4 3 Sur 5 Noroeste 0 -- -- 61
2020-09-08 19:00:00 16.5 0 Calma 9 Oeste 0 -- -- 60
2020-09-08 18:00:00 16.3 5 Noroeste 13 Noroeste 0 -- -- 59
2020-09-08 17:00:00 17.2 5 Noroeste 13 Noroeste 0 -- -- 53
2020-09-08 16:00:00 16.2 5 Noroeste 10 Norte 0 -- -- 53
2020-09-08 15:00:00 15.3 5 Noroeste 10 Noroeste 0 -- -- 47
2020-09-08 14:00:00 15.7 8 Noroeste 23 Sudeste 0 -- -- 38
2020-09-08 13:00:00 17.2 9 Sur -- -- -- -- -- 25
2020-09-08 12:00:00 15.6 10 Sur 26 Sur -- -- -- 27
2020-09-08 11:00:00 15 13 Sur 32 Sur -- -- -- 26
2020-09-08 10:00:00 13.3 14 Sur 22 Sur -- -- -- 29
2020-09-08 09:00:00 11.4 18 Sur 27 Sur -- -- -- 30
2020-09-08 08:00:00 9.7 10 Sudoeste 14 Sur -- -- -- 30
2020-09-08 07:00:00 10.5 11 Sur 19 Sur -- -- -- 29
2020-09-08 06:00:00 11.3 11 Sur 22 Sur -- -- -- 25
2020-09-08 05:00:00 10.6 11 Sur 18 Sur -- -- -- 32
2020-09-08 04:00:00 9.6 11 Sur 19 Sudeste -- -- -- 35
2020-09-08 03:00:00 8.4 10 Sur 16 Sur -- -- -- 43
2020-09-08 02:00:00 6.9 9 Sudoeste 13 Sur -- -- -- 67
2020-09-08 01:00:00 6.5 4 Sur 10 Sudoeste -- -- -- 78
2020-09-08 00:00:00 6.7 4 Sur 9 Sur -- -- -- 84
2020-09-07 23:00:00 9 0 Calma 8 Norte -- -- -- 86
2020-09-07 22:00:00 9.2 4 Noroeste 10 Noroeste -- -- -- 87
2020-09-07 21:00:00 9.6 4 Noroeste 9 Noroeste -- -- -- 85
2020-09-07 20:00:00 10.4 4 Oeste 12 Noroeste -- -- -- 82
2020-09-07 19:00:00 11.2 5 Noroeste 13 Noroeste -- -- -- 76
2020-09-07 18:00:00 12.9 7 Noroeste 16 Noroeste -- -- -- 69
2020-09-07 17:00:00 12.5 6 Noroeste 16 Noroeste -- -- -- 70
2020-09-07 16:00:00 11.9 7 Noroeste 19 Noroeste -- -- -- 73
2020-09-07 15:00:00 10.8 8 Noroeste 18 Noroeste -- -- -- 79
2020-09-07 14:00:00 10 7 Noroeste 14 Noroeste -- -- -- 85
2020-09-07 13:00:00 9.5 6 Noroeste 14 Noroeste -- -- -- 89
2020-09-07 12:00:00 7.7 7 Noroeste 16 Oeste -- -- -- 89
2020-09-07 11:00:00 7 8 Noroeste 19 Noroeste -- -- -- 89
2020-09-07 10:00:00 6.4 10 Noroeste 19 Noroeste -- -- -- 89
2020-09-07 09:00:00 6.4 10 Noroeste 18 Noroeste -- -- -- 89
2020-09-07 08:00:00 6.4 8 Noroeste 17 Oeste -- -- -- 89
2020-09-07 07:00:00 6.4 6 Noroeste 14 Noroeste -- -- -- 89
2020-09-07 06:00:00 6.2 5 Noroeste 14 Oeste -- -- -- 89
2020-09-07 05:00:00 6.4 10 Noroeste 18 Noroeste -- -- -- 89
2020-09-07 04:00:00 6.6 8 Noroeste 15 Noroeste -- -- -- 89
2020-09-07 03:00:00 6.7 5 Noroeste 15 Oeste -- -- -- 89
2020-09-07 02:00:00 7 6 Noroeste 14 Oeste -- -- -- 89
2020-09-07 01:00:00 7 6 Noroeste 20 Noroeste -- -- -- 90
2020-09-07 00:00:00 7.1 9 Noroeste 20 Noroeste -- -- -- 89
2020-09-06 23:00:00 7.4 9 Noroeste 18 Noroeste -- -- -- 89
2020-09-06 22:00:00 7.8 8 Noroeste 15 Noroeste -- -- -- 89
2020-09-06 21:00:00 8.1 8 Noroeste 20 Noroeste -- -- -- 89
2020-09-06 20:00:00 8.5 11 Noroeste 23 Noroeste -- -- -- 89
2020-09-06 19:00:00 8.6 11 Noroeste 21 Noroeste -- -- -- 89
2020-09-06 18:00:00 9.4 7 Noroeste 18 Noroeste -- -- -- 89
2020-09-06 17:00:00 9.2 11 Noroeste 21 Noroeste -- -- -- 89
2020-09-06 16:00:00 9.9 10 Noroeste 18 Noroeste -- -- -- 89
2020-09-06 15:00:00 10.3 7 Noroeste 14 Noroeste -- -- -- 89
2020-09-06 14:00:00 10 5 Noroeste 15 Noroeste -- -- -- 89
2020-09-06 13:00:00 9.7 6 Noroeste 13 Noroeste -- -- -- 89
2020-09-06 12:00:00 9 6 Noroeste 13 Noroeste -- -- -- 89
2020-09-06 11:00:00 9 6 Noroeste 13 Noroeste -- -- -- 89
2020-09-06 10:00:00 8.7 5 Noroeste 10 Noroeste -- -- -- 89
2020-09-06 09:00:00 8.2 6 Noroeste 12 Noroeste -- -- -- 89
2020-09-06 08:00:00 8.6 4 Noroeste 12 Noroeste -- -- -- 89
2020-09-06 07:00:00 8.9 7 Noroeste 13 Noroeste -- -- -- 89
2020-09-06 06:00:00 9.3 6 Noroeste 13 Noroeste -- -- -- 89
2020-09-06 05:00:00 9.4 5 Noroeste 12 Noroeste -- -- -- 89
2020-09-06 04:00:00 9.6 6 Noroeste 14 Noroeste -- -- -- 90
2020-09-06 03:00:00 9.8 6 Noroeste 15 Noroeste -- -- -- 90
2020-09-06 02:00:00 10 8 Noroeste 15 Noroeste -- -- -- 89
2020-09-06 01:00:00 10.2 9 Noroeste 17 Noroeste -- -- -- 89
2020-09-06 00:00:00 10.3 8 Noroeste 14 Norte -- -- -- 89
2020-09-05 23:00:00 10.5 7 Noroeste 18 Noroeste -- -- -- 90
2020-09-05 22:00:00 10.6 8 Noroeste 18 Noroeste -- -- -- 90
2020-09-05 21:00:00 10.8 6 Noroeste 17 Noroeste -- -- -- 89
2020-09-05 20:00:00 11 6 Noroeste 12 Norte -- -- -- 89
2020-09-05 19:00:00 11.3 5 Noroeste 12 Noroeste -- -- -- 89
2020-09-05 18:00:00 11.3 7 Noroeste 14 Noroeste -- -- -- 89
2020-09-05 17:00:00 11.6 7 Noroeste 12 Noroeste -- -- -- 89
2020-09-05 16:00:00 11.8 6 Noroeste 13 Noroeste -- -- -- 90
2020-09-05 15:00:00 12 6 Noroeste 11 Noroeste -- -- -- 89
2020-09-05 14:00:00 11.8 5 Noroeste 10 Noroeste -- -- -- 89
2020-09-05 13:00:00 11.9 6 Noroeste 10 Noroeste -- -- -- 87
2020-09-05 12:00:00 12.2 4 Noroeste 10 Norte -- -- -- 86
2020-09-05 11:00:00 11.9 4 Noroeste 9 Oeste -- -- -- 86
2020-09-05 10:00:00 11.5 4 Noroeste 8 Noroeste -- -- -- 88
2020-09-05 09:00:00 11.3 4 Oeste 9 Noroeste -- -- -- 88
2020-09-05 08:00:00 11.3 0 Calma 6 Noroeste -- -- -- 88
2020-09-05 07:00:00 11 3 Sur 8 Sur -- -- -- 87
2020-09-05 06:00:00 10 5 Sur 10 Sudoeste -- -- -- 85
2020-09-05 05:00:00 10.9 5 Noroeste 13 Sudoeste -- -- -- 71
2020-09-05 04:00:00 11.8 9 Sudoeste 13 Sur -- -- -- 68
2020-09-05 03:00:00 11.6 10 Sudoeste 12 Sudoeste -- -- -- 67
2020-09-05 02:00:00 11.4 8 Sudoeste 10 Sudoeste -- -- -- 67
2020-09-05 01:00:00 11.6 5 Oeste 8 Oeste -- -- -- 72
2020-09-05 00:00:00 13.7 4 Oeste 9 Oeste -- -- -- 69
2020-09-04 23:00:00 13.4 4 Oeste 8 Oeste -- -- -- 66
2020-09-04 22:00:00 15.8 5 Oeste 12 Sudoeste -- -- -- 54
2020-09-04 21:00:00 16 4 Sudoeste 10 Noroeste -- -- -- 52
2020-09-04 20:00:00 18 6 Noroeste 16 Oeste -- -- -- 44
2020-09-04 19:00:00 20 9 Oeste 20 Noroeste -- -- -- 41
2020-09-04 18:00:00 22 6 Noroeste 25 Noroeste -- -- -- 39
2020-09-04 17:00:00 23.5 7 Noroeste 22 Sudoeste -- -- -- 31
2020-09-04 16:00:00 24 9 Sur 21 Sudeste -- -- -- 27
2020-09-04 15:00:00 23.6 9 Sudoeste 25 Sudoeste -- -- -- 27
2020-09-04 14:00:00 23.2 6 Sur 21 Sudeste -- -- -- 28
2020-09-04 13:00:00 21.8 12 Sur 21 Sudeste -- -- -- 30
2020-09-04 12:00:00 20.6 12 Sudeste 24 Sur -- -- -- 33
2020-09-04 11:00:00 20.1 15 Sur 25 Sur -- -- -- 34
2020-09-04 10:00:00 18.7 13 Sur 26 Sur -- -- -- 34
2020-09-04 09:00:00 16.7 18 Sur 27 Sur -- -- -- 35
2020-09-04 08:00:00 15.4 21 Sur 24 Sur -- -- -- 37
2020-09-04 07:00:00 15.2 15 Sur 23 Sur -- -- -- 39
2020-09-04 06:00:00 15.2 15 Sur 26 Sudoeste -- -- -- 41
2020-09-04 05:00:00 16.4 18 Sur 26 Sur -- -- -- 40
2020-09-04 04:00:00 15.9 12 Sur 18 Sudeste -- -- -- 42
2020-09-04 03:00:00 15.9 11 Sur 16 Sudeste -- -- -- 43
2020-09-04 02:00:00 15.5 11 Sur 15 Sur -- -- -- 47
2020-09-04 01:00:00 15 10 Sur 14 Sur -- -- -- 52
2020-09-04 00:00:00 15.2 10 Sur 13 Sudoeste -- -- -- 61
2020-09-03 23:00:00 14 8 Sudoeste 13 Sur -- -- -- 63
2020-09-03 22:00:00 14.4 12 Sudoeste 14 Sudoeste -- -- -- 75
2020-09-03 21:00:00 14 9 Sudoeste 11 Sudoeste -- -- -- 73
2020-09-03 20:00:00 17.2 0 Calma 9 Noroeste -- -- -- 58
2020-09-03 19:00:00 18.9 4 Noroeste 12 Noroeste -- -- -- 54
2020-09-03 18:00:00 19.8 7 Noroeste 15 Oeste -- -- -- 51
2020-09-03 17:00:00 20.2 8 Noroeste 17 Noroeste -- -- -- 46
2020-09-03 16:00:00 21 6 Noroeste 16 Noroeste -- -- -- 40
2020-09-03 15:00:00 20.6 8 Noroeste 15 Noroeste -- -- -- 37
2020-09-03 14:00:00 20.7 5 Noroeste 12 Noroeste -- -- -- 33
2020-09-03 13:00:00 20.7 6 Norte 11 Nordeste -- -- -- 33
2020-09-03 12:00:00 20.1 4 Norte 10 Norte -- -- -- 38
2020-09-03 11:00:00 18.1 4 Nordeste 16 Sudeste -- -- -- 47
2020-09-03 10:00:00 16.9 8 Sur 15 Sudeste -- -- -- 45
2020-09-03 09:00:00 13.9 6 Sur 17 Sur -- -- -- 52
2020-09-03 08:00:00 13 10 Sur 19 Sudoeste -- -- -- 50
2020-09-03 07:00:00 12.9 15 Sur 23 Sur -- -- -- 49
2020-09-03 06:00:00 12.9 13 Sur 19 Sur -- -- -- 52
2020-09-03 05:00:00 12.2 10 Sur 13 Sur -- -- -- 56
2020-09-03 04:00:00 11.4 5 Sur 12 Sur -- -- -- 59
2020-09-03 03:00:00 12 3 Sudoeste 16 Sudoeste -- -- -- 56
2020-09-03 02:00:00 13.2 8 Sudoeste 19 Sur -- -- -- 52
2020-09-03 01:00:00 13.4 15 Sur 19 Sur -- -- -- 57
2020-09-03 00:00:00 11.9 11 Sudoeste 14 Sudoeste -- -- -- 69
2020-09-02 23:00:00 12.2 10 Sudoeste 15 Sudoeste -- -- -- 77
2020-09-02 22:00:00 11.8 12 Sudoeste 14 Sudoeste -- -- -- 84
2020-09-02 21:00:00 12.9 0 Calma 7 Sur -- -- -- 79
2020-09-02 20:00:00 14.2 2 Noroeste 8 Norte -- -- -- 77
2020-09-02 19:00:00 14.2 6 Noroeste 12 Noroeste -- -- -- 73
2020-09-02 18:00:00 15.5 8 Noroeste 16 Noroeste -- -- -- 65
2020-09-02 17:00:00 16.4 5 Noroeste 17 Noroeste -- -- -- 62
2020-09-02 16:00:00 16.5 6 Noroeste 14 Noroeste -- -- -- 61
2020-09-02 15:00:00 15.6 8 Noroeste 16 Noroeste -- -- -- 63
2020-09-02 14:00:00 15.3 5 Noroeste 13 Noroeste -- -- -- 65
2020-09-02 13:00:00 14.6 6 Noroeste 13 Sudeste -- -- -- 62
2020-09-02 12:00:00 16 5 Este 18 Sudeste -- -- -- 55
2020-09-02 11:00:00 14.4 3 Este 15 Sur -- -- -- 61
2020-09-02 10:00:00 12.3 3 Nordeste 15 Sur -- -- -- 69
2020-09-02 09:00:00 10.6 8 Sur 19 Sur -- -- -- 76
2020-09-02 08:00:00 8.3 10 Sur 17 Sur -- -- -- 89
2020-09-02 07:00:00 6.3 2 Sur 8 Sudoeste -- -- -- 90
2020-09-02 06:00:00 6 5 Sudoeste 8 Sudoeste -- -- -- 89
2020-09-02 05:00:00 5.6 0 Calma 6 Sur -- -- -- 89
2020-09-02 04:00:00 5.7 0 Calma 7 Sudoeste -- -- -- 89
2020-09-02 03:00:00 6.5 3 Sur 6 Sur -- -- -- 89
2020-09-02 02:00:00 7.9 4 Sudoeste 6 Oeste -- -- -- 89
2020-09-02 01:00:00 8.4 2 Noroeste 11 Noroeste -- -- -- 89
2020-09-02 00:00:00 8.8 6 Noroeste 12 Norte -- -- -- 89
2020-09-01 23:00:00 8.8 7 Noroeste 16 Noroeste -- -- -- 89
2020-09-01 22:00:00 9 12 Noroeste 22 Noroeste -- -- -- 89
2020-09-01 21:00:00 9.3 12 Noroeste 27 Noroeste -- -- -- 89
2020-09-01 20:00:00 9.5 11 Noroeste 22 Noroeste -- -- -- 89
2020-09-01 19:00:00 10 11 Noroeste 22 Noroeste -- -- -- 87
2020-09-01 18:00:00 10.9 10 Noroeste 21 Noroeste -- -- -- 81
2020-09-01 17:00:00 11.9 10 Noroeste 21 Noroeste -- -- -- 73
2020-09-01 16:00:00 12.4 11 Noroeste 22 Noroeste -- -- -- 70
2020-09-01 15:00:00 13.4 10 Noroeste 18 Noroeste -- -- -- 67
2020-09-01 14:00:00 13.4 7 Noroeste 18 Noroeste -- -- -- 68
2020-09-01 13:00:00 12.5 6 Noroeste 16 Noroeste -- -- -- 68
2020-09-01 12:00:00 12.3 3 Noroeste 10 Noroeste -- -- -- 67
2020-09-01 11:00:00 11.7 5 Noroeste 10 Noroeste -- -- -- 64
2020-09-01 10:00:00 10.7 0 Calma 5 Norte -- -- -- 61
2020-09-01 09:00:00 9.9 0 Calma 12 Sudoeste -- -- -- 58
2020-09-01 08:00:00 9.2 7 Sur 16 Sudoeste -- -- -- 58
2020-09-01 07:00:00 9.8 6 Sudoeste 18 Sudeste -- -- -- 55
2020-09-01 06:00:00 10.4 13 Sur 17 Sur -- -- -- 53
2020-09-01 05:00:00 10.6 10 Sur 15 Sur -- -- -- 52
2020-09-01 04:00:00 10.5 7 Sur 18 Sur -- -- -- 54
2020-09-01 03:00:00 10.1 10 Sudoeste 14 Sur -- -- -- 57
2020-09-01 02:00:00 9.6 9 Sudoeste 11 Sudoeste -- -- -- 68
2020-09-01 01:00:00 9.5 8 Sudoeste 11 Sudoeste -- -- -- 65
2020-09-01 00:00:00 9.5 9 Sudoeste 12 Sur -- -- -- 60
2020-08-31 23:00:00 9.7 8 Sur 10 Sur -- -- -- 64
2020-08-31 22:00:00 10.6 3 Sudoeste 12 Sudoeste -- -- -- 61
2020-08-31 21:00:00 10.6 6 Sudoeste 9 Sudoeste -- -- -- 74
2020-08-31 20:00:00 11.3 3 Noroeste 9 Noroeste -- -- -- 71
2020-08-31 19:00:00 12.1 4 Noroeste 9 Noroeste -- -- -- 66
2020-08-31 18:00:00 13.2 4 Norte 11 Norte -- -- -- 58
2020-08-31 17:00:00 13.7 5 Noroeste 17 Sur -- -- -- 47
2020-08-31 16:00:00 14.3 4 Noroeste 21 Este -- -- -- 41
2020-08-31 15:00:00 13.7 11 Sur 24 Este -- -- -- 39
2020-08-31 14:00:00 12.7 10 Sur 26 Sudeste -- -- -- 42
2020-08-31 13:00:00 12.2 12 Sur 27 Sudeste -- -- -- 44
2020-08-31 12:00:00 11 15 Sur 28 Sur 0 -- -- 50
2020-08-31 11:00:00 9.3 18 Sur 31 Sur 0 -- -- 60
2020-08-31 10:00:00 7.7 21 Sur 30 Sur 0 -- -- 64
2020-08-31 09:00:00 6.4 21 Sur 32 Sur 0 -- -- 68
2020-08-31 08:00:00 5.6 21 Sur 35 Sur 0 -- -- 68
2020-08-31 07:00:00 5.5 17 Sur 29 Sudeste 0 -- -- 69
2020-08-31 06:00:00 5.8 18 Sur 30 Sur 0 -- -- 72
2020-08-31 05:00:00 5.9 21 Sur 31 Sur 0 -- -- 73
2020-08-31 04:00:00 6 21 Sur 29 Sur 0 -- -- 75
2020-08-31 03:00:00 5.8 20 Sur 27 Sur 0 -- -- 75
2020-08-31 02:00:00 5.8 17 Sur 26 Sur 0 -- -- 76
2020-08-31 01:00:00 6 14 Sur 24 Sur 0 -- -- 82
2020-08-31 00:00:00 3.3 6 Sur 9 Sur 0 -- -- 89
2020-08-30 23:00:00 5.2 2 Norte 5 Oeste 0 -- -- 90
2020-08-30 22:00:00 5.5 0 Calma 8 Noroeste 0 -- -- 89
2020-08-30 21:00:00 5.7 4 Noroeste 9 Noroeste 0 -- -- 89
2020-08-30 20:00:00 6.1 4 Noroeste 10 Noroeste 0 -- -- 89
2020-08-30 19:00:00 6.5 5 Noroeste 15 Noroeste 0 -- -- 89
2020-08-30 18:00:00 6.3 8 Oeste 13 Oeste 0 -- -- 89
2020-08-30 17:00:00 5.5 4 Noroeste 16 Noroeste 0 -- -- 89
2020-08-30 16:00:00 7.2 8 Noroeste 14 Noroeste 0 -- -- 88
2020-08-30 15:00:00 6.3 4 Noroeste 17 Noroeste 0 -- -- 90
2020-08-30 14:00:00 5.7 8 Noroeste 21 Noroeste 0 -- -- 90
2020-08-30 13:00:00 6.2 6 Norte 24 Noroeste 0 -- -- 90
2020-08-30 12:00:00 5.2 6 Noroeste 14 Noroeste 0 -- -- 90
2020-08-30 11:00:00 4.1 5 Noroeste 28 Noroeste 0 -- -- 90
2020-08-30 10:00:00 3.7 10 Noroeste 30 Noroeste 0 -- -- 90
2020-08-30 09:00:00 4 14 Noroeste 37 Noroeste 0 -- -- 90
2020-08-30 08:00:00 4.4 14 Noroeste 38 Noroeste 0 -- -- 91
2020-08-30 07:00:00 4.4 16 Noroeste 37 Noroeste 0 -- -- 90
2020-08-30 06:00:00 4.4 18 Noroeste 36 Noroeste 0 -- -- 90
2020-08-30 05:00:00 4.6 11 Noroeste 27 Noroeste 0 -- -- 90
2020-08-30 04:00:00 4.5 15 Noroeste 28 Noroeste 0 -- -- 90
2020-08-30 03:00:00 4.4 10 Noroeste 23 Noroeste 0 -- -- 90
2020-08-30 02:00:00 4.5 13 Noroeste 26 Noroeste 0 -- -- 90
2020-08-30 01:00:00 4.6 13 Noroeste 31 Noroeste 0 -- -- 90
2020-08-30 00:00:00 4.6 17 Noroeste 32 Noroeste 0 -- -- 90
2020-08-29 23:00:00 4.7 16 Noroeste 40 Noroeste 0 -- -- 90
2020-08-29 22:00:00 4.9 19 Noroeste 36 Noroeste 0 -- -- 90
2020-08-29 21:00:00 4.9 12 Noroeste 38 Noroeste 0 -- -- 90
2020-08-29 20:00:00 5 14 Noroeste 39 Noroeste 0 -- -- 90
2020-08-29 19:00:00 5.2 15 Noroeste 41 Noroeste 0 -- -- 90
2020-08-29 18:00:00 5.2 21 Noroeste 44 Noroeste 0 -- -- 90
2020-08-29 17:00:00 5.7 13 Norte 51 Noroeste 0 -- -- 90
2020-08-29 16:00:00 6.1 12 Noroeste 42 Noroeste 0 -- -- 90
2020-08-29 15:00:00 5.9 20 Noroeste 46 Noroeste 0 -- -- 90
2020-08-29 14:00:00 5.6 18 Noroeste 49 Noroeste 0 -- -- 90
2020-08-29 13:00:00 5.6 14 Noroeste 41 Noroeste 0 -- -- 90
2020-08-29 12:00:00 5.3 12 Noroeste 38 Noroeste 0 -- -- 90
2020-08-29 11:00:00 5.3 18 Noroeste 49 Noroeste 0 -- -- 90
2020-08-29 10:00:00 5.3 13 Norte 34 Noroeste 0 -- -- 90
2020-08-29 09:00:00 5 18 Noroeste 37 Noroeste 0 -- -- 90
2020-08-29 08:00:00 4.7 16 Noroeste 34 Noroeste 0 -- -- 90
2020-08-29 07:00:00 5.2 14 Noroeste 37 Noroeste 0 -- -- 90
2020-08-29 06:00:00 5.3 15 Noroeste 37 Noroeste 0 -- -- 90
2020-08-29 05:00:00 5.2 16 Noroeste 34 Noroeste 0 -- -- 90
2020-08-29 04:00:00 5.2 15 Noroeste 31 Noroeste 0 -- -- 90
2020-08-29 03:00:00 5.2 15 Noroeste 29 Noroeste 0 -- -- 89
2020-08-29 02:00:00 4.9 6 Noroeste 18 Noroeste 0 -- -- 90
2020-08-29 01:00:00 5 10 Noroeste 19 Noroeste 0 -- -- 90
2020-08-29 00:00:00 5.5 10 Noroeste 27 Noroeste 0 -- -- 90
2020-08-28 23:00:00 6 11 Noroeste 27 Noroeste 0 -- -- 90
2020-08-28 22:00:00 6.2 12 Noroeste 35 Noroeste 0 -- -- 90
2020-08-28 21:00:00 6.5 14 Noroeste 32 Noroeste 0 -- -- 90
2020-08-28 20:00:00 7 14 Noroeste 32 Noroeste 0 -- -- 87
2020-08-28 19:00:00 8.2 13 Noroeste 28 Noroeste 0 -- -- 78
2020-08-28 18:00:00 8.9 11 Noroeste 30 Noroeste 0 -- -- 75
2020-08-28 17:00:00 9.3 12 Noroeste 29 Noroeste 0 -- -- 71
2020-08-28 16:00:00 9.6 14 Noroeste 26 Noroeste 0 -- -- 68
2020-08-28 15:00:00 9.9 12 Noroeste 26 Noroeste 0 -- -- 69
2020-08-28 14:00:00 9.1 10 Noroeste 26 Noroeste 0 -- -- 79
2020-08-28 13:00:00 9.1 6 Noroeste 16 Noroeste 0 -- -- 90
2020-08-28 12:00:00 7.9 6 Noroeste 26 Noroeste 0 -- -- 90
2020-08-28 11:00:00 7.7 9 Noroeste 20 Noroeste 0 -- -- 90
2020-08-28 10:00:00 8.6 10 Noroeste 20 Noroeste 0 -- -- 90
2020-08-28 09:00:00 9.2 5 Norte 20 Noroeste 0 -- -- 90
2020-08-28 08:00:00 9.8 7 Noroeste 15 Noroeste 0 -- -- 90
2020-08-28 07:00:00 10.5 6 Noroeste 17 Noroeste 0 -- -- 90
2020-08-28 06:00:00 11.1 6 Noroeste 11 Noroeste 0 -- -- 90
2020-08-28 05:00:00 11.5 4 Noroeste 8 Norte 0 -- -- 90
2020-08-28 04:00:00 12.5 4 Norte 15 Noroeste 0 -- -- 90
2020-08-28 03:00:00 13 8 Noroeste 19 Noroeste 0 -- -- 90
2020-08-28 02:00:00 13.1 8 Noroeste 22 Noroeste 0 -- -- 90
2020-08-28 01:00:00 13.6 10 Noroeste 21 Noroeste 0 -- -- 90
2020-08-28 00:00:00 14 10 Noroeste 25 Noroeste 0 -- -- 90